createdAt,value
2023-03-07T00:01:09.178Z,99617.00
2023-03-07T00:03:36.896Z,99613.00
2023-03-07T00:06:10.009Z,99610.00
2023-03-07T00:08:37.666Z,99600.00
2023-03-07T00:11:08.037Z,99600.00
2023-03-07T00:13:38.393Z,99604.00
2023-03-07T00:16:10.727Z,99599.00
2023-03-07T00:18:37.677Z,99597.00
2023-03-07T00:21:08.076Z,99591.00
2023-03-07T00:23:38.015Z,99600.00
2023-03-07T00:26:11.862Z,99600.00
2023-03-07T00:28:38.662Z,99589.00
2023-03-07T00:31:11.166Z,99583.00
2023-03-07T00:33:39.278Z,99571.00
2023-03-07T00:36:15.367Z,99573.00
2023-03-07T00:38:42.448Z,99568.00
2023-03-07T00:41:19.043Z,99553.00
2023-03-07T00:43:47.187Z,99557.00
2023-03-07T00:46:16.099Z,99550.00
2023-03-07T00:48:43.808Z,99541.00
2023-03-07T00:51:15.454Z,99531.00
2023-03-07T00:53:43.209Z,99519.00
2023-03-07T00:56:21.165Z,99517.00
2023-03-07T00:58:48.954Z,99519.00
2023-03-07T01:01:20.925Z,99509.00
2023-03-07T01:03:53.653Z,99509.00
2023-03-07T01:06:25.172Z,99499.00
2023-03-07T01:08:52.632Z,99490.00
2023-03-07T01:11:19.699Z,99486.00
2023-03-07T01:13:46.671Z,99487.00
2023-03-07T01:16:22.842Z,99483.00
2023-03-07T01:18:53.990Z,99481.00
2023-03-07T01:21:26.673Z,99464.00
2023-03-07T01:23:53.832Z,99467.00
2023-03-07T01:26:30.369Z,99455.00
2023-03-07T01:29:01.547Z,99459.00
2023-03-07T01:31:30.238Z,99460.00
2023-03-07T01:33:57.310Z,99455.00
2023-03-07T01:36:30.515Z,99440.00
2023-03-07T01:39:02.810Z,99436.00
2023-03-07T01:41:32.342Z,99433.00
2023-03-07T01:44:02.512Z,99433.00
2023-03-07T01:46:53.233Z,99423.00
2023-03-07T01:49:37.542Z,99404.00
2023-03-07T01:52:28.280Z,99403.00
2023-03-07T01:55:10.309Z,99393.00
2023-03-07T01:57:40.377Z,99382.00
2023-03-07T02:00:13.934Z,99379.00
2023-03-07T02:02:49.536Z,99368.00
2023-03-07T02:05:25.830Z,99362.00
2023-03-07T02:07:54.915Z,99353.00
2023-03-07T02:10:24.284Z,99345.00
2023-03-07T02:12:53.770Z,99347.00
2023-03-07T02:15:21.357Z,99332.00
2023-03-07T02:17:48.330Z,99324.00
2023-03-07T02:20:31.643Z,99332.00
2023-03-07T02:22:58.394Z,99322.00
2023-03-07T02:25:43.609Z,99319.00
2023-03-07T02:28:14.502Z,99312.00
2023-03-07T02:30:58.460Z,99311.00
2023-03-07T02:33:25.414Z,99293.00
2023-03-07T02:35:59.176Z,99287.00
2023-03-07T02:38:26.793Z,99291.00
2023-03-07T02:40:56.954Z,99277.00
2023-03-07T02:43:24.293Z,99270.00
2023-03-07T02:45:51.328Z,99276.00
2023-03-07T02:48:18.867Z,99257.00
2023-03-07T02:50:45.637Z,99261.00
2023-03-07T02:53:12.401Z,99255.00
2023-03-07T02:55:40.074Z,99244.00
2023-03-07T02:58:07.069Z,99250.00
2023-03-07T03:00:34.177Z,99232.00
2023-03-07T03:03:01.246Z,99221.00
2023-03-07T03:05:27.995Z,99222.00
2023-03-07T03:07:55.093Z,99218.00
2023-03-07T03:10:21.862Z,99213.00
2023-03-07T03:12:48.628Z,99216.00
2023-03-07T03:15:15.432Z,99200.00
2023-03-07T03:17:42.713Z,99196.00
2023-03-07T03:20:11.929Z,99194.00
2023-03-07T03:22:42.496Z,99178.00
2023-03-07T03:25:14.451Z,99166.00
2023-03-07T03:27:41.951Z,99160.00
2023-03-07T03:30:12.241Z,99149.00
2023-03-07T03:32:40.130Z,99154.00
2023-03-07T03:35:08.075Z,99150.00
2023-03-07T03:37:35.239Z,99148.00
2023-03-07T03:40:02.246Z,99140.00
2023-03-07T03:42:29.024Z,99131.00
2023-03-07T03:44:55.763Z,99130.00
2023-03-07T03:47:22.534Z,99121.00
2023-03-07T03:49:49.400Z,99120.00
2023-03-07T03:52:16.122Z,99114.00
2023-03-07T03:54:42.897Z,99120.00
2023-03-07T03:57:10.724Z,99105.00
2023-03-07T03:59:37.461Z,99105.00
2023-03-07T04:02:04.352Z,99096.00
2023-03-07T04:04:31.132Z,99104.00
2023-03-07T04:06:57.914Z,99095.00
2023-03-07T04:09:24.678Z,99087.00
2023-03-07T04:11:51.402Z,99084.00
2023-03-07T04:14:18.151Z,99087.00
2023-03-07T04:16:44.990Z,99070.00
2023-03-07T04:19:13.044Z,99055.00
2023-03-07T04:21:40.963Z,99060.00
2023-03-07T04:24:08.705Z,99053.00
2023-03-07T04:26:36.282Z,99044.00
2023-03-07T04:29:04.521Z,99055.00
2023-03-07T04:31:32.797Z,99047.00
2023-03-07T04:33:59.629Z,99036.00
2023-03-07T04:36:26.491Z,99024.00
2023-03-07T04:38:53.319Z,99022.00
2023-03-07T04:41:26.103Z,99021.00
2023-03-07T04:43:53.620Z,99013.00
2023-03-07T04:46:21.095Z,99010.00
2023-03-07T04:48:47.854Z,99004.00
2023-03-07T04:51:15.220Z,99010.00
2023-03-07T04:53:42.248Z,99003.00
2023-03-07T04:56:10.098Z,98999.00
2023-03-07T04:58:37.804Z,98993.00
2023-03-07T05:01:05.383Z,98996.00
2023-03-07T05:03:33.391Z,98984.00
2023-03-07T05:06:12.720Z,98990.00
2023-03-07T05:08:39.543Z,98960.00
2023-03-07T05:11:06.348Z,98974.00
2023-03-07T05:13:33.375Z,98968.00
2023-03-07T05:16:01.055Z,98964.00
2023-03-07T05:18:28.836Z,98968.00
2023-03-07T05:20:56.043Z,98957.00
2023-03-07T05:23:23.809Z,98955.00
2023-03-07T05:25:51.481Z,98951.00
2023-03-07T05:28:19.033Z,98943.00
2023-03-07T05:30:46.914Z,98948.00
2023-03-07T05:33:15.094Z,98946.00
2023-03-07T05:35:43.127Z,98956.00
2023-03-07T05:38:10.039Z,98933.00
2023-03-07T05:40:36.997Z,98948.00
2023-03-07T05:43:04.069Z,98941.00
2023-03-07T05:45:30.802Z,98946.00
2023-03-07T05:47:57.543Z,98946.00
2023-03-07T05:50:24.298Z,98942.00
2023-03-07T05:52:52.954Z,98934.00
2023-03-07T05:55:19.793Z,98934.00
2023-03-07T05:57:46.610Z,98943.00
2023-03-07T06:00:14.449Z,98936.00
2023-03-07T06:02:42.355Z,98938.00
2023-03-07T06:05:09.552Z,98933.00
2023-03-07T06:07:36.257Z,98934.00
2023-03-07T06:10:04.260Z,98934.00
2023-03-07T06:12:31.035Z,98935.00
2023-03-07T06:14:57.741Z,98923.00
2023-03-07T06:17:24.476Z,98940.00
2023-03-07T06:19:51.263Z,98935.00
2023-03-07T06:22:17.993Z,98936.00
2023-03-07T06:24:44.746Z,98929.00
2023-03-07T06:27:11.479Z,98929.00
2023-03-07T06:29:38.224Z,98929.00
2023-03-07T06:32:05.570Z,98931.00
2023-03-07T06:34:32.322Z,98928.00
2023-03-07T06:36:59.862Z,98932.00
2023-03-07T06:39:27.459Z,98926.00
2023-03-07T06:41:55.080Z,98926.00
2023-03-07T06:44:21.805Z,98932.00
2023-03-07T06:46:48.923Z,98929.00
2023-03-07T06:49:15.693Z,98937.00
2023-03-07T06:51:42.413Z,98935.00
2023-03-07T06:54:09.155Z,98939.00
2023-03-07T06:56:35.957Z,98934.00
2023-03-07T06:59:02.816Z,98937.00
2023-03-07T07:01:30.014Z,98936.00
2023-03-07T07:03:57.531Z,98935.00
2023-03-07T07:06:24.364Z,98948.00
2023-03-07T07:08:55.621Z,98950.00
2023-03-07T07:11:23.758Z,98950.00
2023-03-07T07:13:50.728Z,98936.00
2023-03-07T07:16:18.890Z,98942.00
2023-03-07T07:18:46.356Z,98923.00
2023-03-07T07:21:13.138Z,98936.00
2023-03-07T07:23:40.068Z,98934.00
2023-03-07T07:26:06.986Z,98936.00
2023-03-07T07:28:33.720Z,98936.00
2023-03-07T07:31:00.621Z,98941.00
2023-03-07T07:33:27.709Z,98918.00
2023-03-07T07:35:54.578Z,98926.00
2023-03-07T07:38:21.654Z,98918.00
2023-03-07T07:40:48.733Z,98919.00
2023-03-07T07:43:17.532Z,98919.00
2023-03-07T07:45:44.337Z,98922.00
2023-03-07T07:48:11.312Z,98914.00
2023-03-07T07:50:38.491Z,98908.00
2023-03-07T07:53:05.277Z,98907.00
2023-03-07T07:55:32.457Z,98913.00
2023-03-07T07:57:59.291Z,98911.00
2023-03-07T08:00:26.374Z,98916.00
2023-03-07T08:02:53.128Z,98914.00
2023-03-07T08:05:21.715Z,98922.00
2023-03-07T08:07:49.609Z,98910.00
2023-03-07T08:10:17.703Z,98921.00
2023-03-07T08:12:48.289Z,98909.00
2023-03-07T08:15:17.064Z,98910.00
2023-03-07T08:17:44.353Z,98918.00
2023-03-07T08:20:11.634Z,98914.00
2023-03-07T08:22:39.219Z,98918.00
2023-03-07T08:25:18.029Z,98920.00
2023-03-07T08:27:44.960Z,98911.00
2023-03-07T08:30:13.240Z,98918.00
2023-03-07T08:32:40.047Z,98916.00
2023-03-07T08:35:07.640Z,98915.00
2023-03-07T08:37:35.320Z,98914.00
2023-03-07T08:40:02.762Z,98902.00
2023-03-07T08:42:30.142Z,98909.00
2023-03-07T08:44:57.004Z,98918.00
2023-03-07T08:47:24.334Z,98919.00
2023-03-07T08:49:51.142Z,98914.00
2023-03-07T08:52:17.964Z,98918.00
2023-03-07T08:54:45.325Z,98900.00
2023-03-07T08:57:12.132Z,98903.00
2023-03-07T08:59:38.884Z,98910.00
2023-03-07T09:02:05.747Z,98900.00
2023-03-07T09:04:32.541Z,98907.00
2023-03-07T09:07:01.532Z,98904.00
2023-03-07T09:09:30.363Z,98906.00
2023-03-07T09:11:57.891Z,98906.00
2023-03-07T09:14:24.794Z,98908.00
2023-03-07T09:16:51.604Z,98898.00
2023-03-07T09:19:18.323Z,98900.00
2023-03-07T09:21:45.037Z,98897.00
2023-03-07T09:24:11.812Z,98907.00
2023-03-07T09:26:38.608Z,98905.00
2023-03-07T09:29:05.375Z,98906.00
2023-03-07T09:31:32.199Z,98891.00
2023-03-07T09:33:59.400Z,98904.00
2023-03-07T09:36:26.331Z,98901.00
2023-03-07T09:38:53.079Z,98910.00
2023-03-07T09:41:46.967Z,98893.00
2023-03-07T09:44:41.617Z,98890.00
2023-03-07T09:47:31.509Z,98899.00
2023-03-07T09:50:02.230Z,98906.00
2023-03-07T09:52:34.626Z,98894.00
2023-03-07T09:55:13.245Z,98917.00
2023-03-07T09:57:55.337Z,98902.00
2023-03-07T10:00:30.746Z,98891.00
2023-03-07T10:03:22.091Z,98897.00
2023-03-07T10:05:55.447Z,98899.00
2023-03-07T10:08:31.736Z,98890.00
2023-03-07T10:11:40.446Z,98890.00
2023-03-07T10:15:00.801Z,98891.00
2023-03-07T10:17:43.873Z,98907.00
2023-03-07T10:20:22.982Z,98893.00
2023-03-07T10:23:22.118Z,98889.00
2023-03-07T10:26:10.708Z,98888.00
2023-03-07T10:28:42.859Z,98894.00
2023-03-07T10:31:32.068Z,98904.00
2023-03-07T10:33:59.397Z,98902.00
2023-03-07T10:36:46.941Z,98910.00
2023-03-07T10:39:36.120Z,98896.00
2023-03-07T10:42:02.870Z,98916.00
2023-03-07T10:44:34.211Z,98902.00
2023-03-07T10:47:01.198Z,98921.00
2023-03-07T10:49:50.388Z,98908.00
2023-03-07T10:52:43.926Z,98919.00
2023-03-07T10:55:36.943Z,98903.00
2023-03-07T10:58:28.866Z,98900.00
2023-03-07T11:01:06.844Z,98891.00
2023-03-07T11:03:52.727Z,98905.00
2023-03-07T11:06:41.819Z,98901.00
2023-03-07T11:09:19.353Z,98898.00
2023-03-07T11:12:04.722Z,98890.00
2023-03-07T11:15:00.015Z,98881.00
2023-03-07T11:17:48.542Z,98877.00
2023-03-07T11:20:29.195Z,98875.00
2023-03-07T11:23:26.063Z,98865.00
2023-03-07T11:25:55.848Z,98866.00
2023-03-07T11:28:33.497Z,98871.00
2023-03-07T11:31:39.864Z,98857.00
2023-03-07T11:34:34.706Z,98862.00
2023-03-07T11:37:34.302Z,98854.00
2023-03-07T11:40:22.969Z,98856.00
2023-03-07T11:43:21.663Z,98845.00
2023-03-07T11:46:09.566Z,98847.00
2023-03-07T11:49:11.090Z,98834.00
2023-03-07T11:52:14.291Z,98839.00
2023-03-07T11:55:16.238Z,98834.00
2023-03-07T11:58:15.800Z,98840.00
2023-03-07T12:01:09.845Z,98835.00
2023-03-07T12:04:28.357Z,98828.00
2023-03-07T12:07:04.699Z,98832.00
2023-03-07T12:10:03.489Z,98827.00
2023-03-07T12:13:15.946Z,98835.00
2023-03-07T12:16:00.817Z,98833.00
2023-03-07T12:18:58.414Z,98837.00
2023-03-07T12:22:03.249Z,98841.00
2023-03-07T12:24:42.485Z,98841.00
2023-03-07T12:27:19.691Z,98849.00
2023-03-07T12:30:01.842Z,98852.00
2023-03-07T12:32:33.450Z,98833.00
2023-03-07T12:35:26.677Z,98831.00
2023-03-07T12:38:12.861Z,98831.00
2023-03-07T12:40:47.356Z,98831.00
2023-03-07T12:43:27.292Z,98841.00
2023-03-07T12:46:12.162Z,98835.00
2023-03-07T12:48:58.919Z,98843.00
2023-03-07T12:51:35.327Z,98833.00
2023-03-07T12:54:26.530Z,98835.00
2023-03-07T12:57:07.817Z,98826.00
2023-03-07T12:59:40.080Z,98833.00
2023-03-07T13:02:27.257Z,98839.00
2023-03-07T13:04:54.679Z,98832.00
2023-03-07T13:07:29.408Z,98847.00
2023-03-07T13:10:05.938Z,98836.00
2023-03-07T13:12:38.062Z,98851.00
2023-03-07T13:15:21.132Z,98849.00
2023-03-07T13:17:48.136Z,98855.00
2023-03-07T13:20:43.368Z,98842.00
2023-03-07T13:23:28.157Z,98848.00
2023-03-07T13:26:07.657Z,98852.00
2023-03-07T13:28:39.302Z,98843.00
2023-03-07T13:31:20.991Z,98852.00
2023-03-07T13:33:50.640Z,98859.00
2023-03-07T13:36:37.833Z,98855.00
2023-03-07T13:39:38.473Z,98858.00
2023-03-07T13:42:43.602Z,98853.00
2023-03-07T13:45:39.217Z,98863.00
2023-03-07T13:48:15.537Z,98860.00
2023-03-07T13:50:42.174Z,98855.00
2023-03-07T13:53:18.692Z,98852.00
2023-03-07T13:56:01.203Z,98846.00
2023-03-07T13:58:33.641Z,98856.00
2023-03-07T14:01:04.056Z,98854.00
2023-03-07T14:03:38.796Z,98859.00
2023-03-07T14:06:17.410Z,98857.00
2023-03-07T14:08:47.361Z,98847.00
2023-03-07T14:11:40.951Z,98835.00
2023-03-07T14:14:47.398Z,98834.00
2023-03-07T14:17:47.109Z,98838.00
2023-03-07T14:20:24.036Z,98835.00
2023-03-07T14:23:48.371Z,98839.00
2023-03-07T14:26:41.927Z,98832.00
2023-03-07T14:29:23.693Z,98841.00
2023-03-07T14:31:59.431Z,98829.00
2023-03-07T14:34:32.389Z,98827.00
2023-03-07T14:37:28.066Z,98834.00
2023-03-07T14:40:04.106Z,98821.00
2023-03-07T14:43:16.054Z,98830.00
2023-03-07T14:46:11.083Z,98831.00
2023-03-07T14:49:00.430Z,98819.00
2023-03-07T14:51:30.420Z,98825.00
2023-03-07T14:54:17.681Z,98828.00
2023-03-07T14:56:45.074Z,98828.00
2023-03-07T14:59:25.944Z,98840.00
2023-03-07T15:01:55.397Z,98837.00
2023-03-07T15:04:33.148Z,98839.00
2023-03-07T15:07:04.675Z,98837.00
2023-03-07T15:09:33.714Z,98844.00
2023-03-07T15:12:18.598Z,98837.00
2023-03-07T15:15:04.156Z,98844.00
2023-03-07T15:17:43.789Z,98836.00
2023-03-07T15:20:22.357Z,98849.00
2023-03-07T15:22:49.404Z,98859.00
2023-03-07T15:25:24.474Z,98848.00
2023-03-07T15:28:17.600Z,98863.00
2023-03-07T15:30:53.222Z,98863.00
2023-03-07T15:33:20.360Z,98860.00
2023-03-07T15:36:12.195Z,98869.00
2023-03-07T15:38:50.302Z,98867.00
2023-03-07T15:41:31.713Z,98877.00
2023-03-07T15:44:18.232Z,98878.00
2023-03-07T15:46:53.011Z,98878.00
2023-03-07T15:49:41.330Z,98887.00
2023-03-07T15:52:28.292Z,98890.00
2023-03-07T15:54:58.314Z,98894.00
2023-03-07T15:57:38.322Z,98895.00
2023-03-07T16:00:19.041Z,98894.00
2023-03-07T16:02:50.598Z,98899.00
2023-03-07T16:05:23.177Z,98904.00
2023-03-07T16:07:56.778Z,98892.00
2023-03-07T16:10:31.632Z,98904.00
2023-03-07T16:13:00.823Z,98897.00
2023-03-07T16:15:27.846Z,98906.00
2023-03-07T16:17:56.512Z,98905.00
2023-03-07T16:20:27.889Z,98908.00
2023-03-07T16:22:55.738Z,98902.00
2023-03-07T16:25:25.202Z,98904.00
2023-03-07T16:27:56.595Z,98905.00
2023-03-07T16:30:27.720Z,98900.00
2023-03-07T16:32:55.650Z,98898.00
2023-03-07T16:35:28.424Z,98897.00
2023-03-07T16:37:56.067Z,98895.00
2023-03-07T16:40:23.633Z,98906.00
2023-03-07T16:42:50.758Z,98910.00
2023-03-07T16:45:22.394Z,98923.00
2023-03-07T16:47:52.984Z,98909.00
2023-03-07T16:50:25.503Z,98925.00
2023-03-07T16:52:52.570Z,98928.00
2023-03-07T16:55:20.090Z,98935.00
2023-03-07T16:57:51.232Z,98930.00
2023-03-07T17:00:28.455Z,98934.00
2023-03-07T17:03:00.390Z,98936.00
2023-03-07T17:05:29.991Z,98944.00
2023-03-07T17:07:58.852Z,98942.00
2023-03-07T17:10:27.156Z,98949.00
2023-03-07T17:12:57.462Z,98953.00
2023-03-07T17:15:30.396Z,98947.00
2023-03-07T17:17:59.348Z,98944.00
2023-03-07T17:20:27.101Z,98951.00
2023-03-07T17:22:53.910Z,98948.00
2023-03-07T17:25:22.557Z,98960.00
2023-03-07T17:28:00.003Z,98957.00
2023-03-07T17:30:30.002Z,98966.00
2023-03-07T17:32:57.168Z,98964.00
2023-03-07T17:35:25.076Z,98968.00
2023-03-07T17:37:53.045Z,98970.00
2023-03-07T17:40:21.581Z,98979.00
2023-03-07T17:42:52.002Z,98971.00
2023-03-07T17:45:19.274Z,98983.00
2023-03-07T17:47:51.465Z,98981.00
2023-03-07T17:50:23.551Z,98981.00
2023-03-07T17:52:55.365Z,98974.00
2023-03-07T17:55:26.434Z,98984.00
2023-03-07T17:57:53.481Z,98978.00
2023-03-07T18:00:21.236Z,98990.00
2023-03-07T18:02:48.277Z,98982.00
2023-03-07T18:05:15.120Z,98987.00
2023-03-07T18:07:41.996Z,98992.00
2023-03-07T18:10:10.292Z,98988.00
2023-03-07T18:12:39.174Z,98991.00
2023-03-07T18:15:16.000Z,98987.00
2023-03-07T18:17:48.316Z,98991.00
2023-03-07T18:20:18.878Z,98994.00
2023-03-07T18:22:45.901Z,99001.00
2023-03-07T18:25:15.897Z,98990.00
2023-03-07T18:27:43.348Z,98990.00
2023-03-07T18:30:11.875Z,98994.00
2023-03-07T18:32:38.771Z,98989.00
2023-03-07T18:35:06.745Z,98977.00
2023-03-07T18:37:33.784Z,98995.00
2023-03-07T18:40:00.614Z,98994.00
2023-03-07T18:42:27.462Z,99011.00
2023-03-07T18:44:54.528Z,99000.00
2023-03-07T18:47:21.484Z,99008.00
2023-03-07T18:49:52.144Z,99000.00
2023-03-07T18:52:18.976Z,99001.00
2023-03-07T18:54:48.018Z,99006.00
2023-03-07T18:57:15.294Z,99008.00
2023-03-07T18:59:42.045Z,99012.00
2023-03-07T19:02:10.278Z,99017.00
2023-03-07T19:04:37.086Z,99007.00
2023-03-07T19:07:04.035Z,99012.00
2023-03-07T19:09:31.600Z,99002.00
2023-03-07T19:11:58.432Z,99030.00
2023-03-07T19:14:26.369Z,99027.00
2023-03-07T19:16:53.206Z,99021.00
2023-03-07T19:19:20.723Z,99025.00
2023-03-07T19:21:47.567Z,99030.00
2023-03-07T19:24:14.488Z,99031.00
2023-03-07T19:26:42.720Z,99019.00
2023-03-07T19:29:12.065Z,99033.00
2023-03-07T19:31:39.188Z,99036.00
2023-03-07T19:34:06.414Z,99043.00
2023-03-07T19:36:35.150Z,99044.00
2023-03-07T19:39:02.264Z,99051.00
2023-03-07T19:41:31.753Z,99036.00
2023-03-07T19:44:00.516Z,99054.00
2023-03-07T19:46:28.168Z,99052.00
2023-03-07T19:48:55.234Z,99056.00
2023-03-07T19:51:25.264Z,99051.00
2023-03-07T19:53:56.789Z,99057.00
2023-03-07T19:56:28.630Z,99055.00
2023-03-07T19:58:57.447Z,99062.00
2023-03-07T20:01:25.734Z,99065.00
2023-03-07T20:03:53.749Z,99066.00
2023-03-07T20:06:27.760Z,99060.00
2023-03-07T20:08:55.154Z,99048.00
2023-03-07T20:11:27.465Z,99061.00
2023-03-07T20:13:56.316Z,99056.00
2023-03-07T20:16:24.563Z,99072.00
2023-03-07T20:18:53.195Z,99071.00
2023-03-07T20:21:23.072Z,99076.00
2023-03-07T20:23:52.826Z,99085.00
2023-03-07T20:26:34.464Z,99087.00
2023-03-07T20:29:03.849Z,99095.00
2023-03-07T20:31:31.041Z,99092.00
2023-03-07T20:34:00.102Z,99097.00
2023-03-07T20:36:33.741Z,99102.00
2023-03-07T20:39:05.425Z,99110.00
2023-03-07T20:41:33.662Z,99116.00
2023-03-07T20:44:03.756Z,99100.00
2023-03-07T20:46:32.221Z,99103.00
2023-03-07T20:49:01.121Z,99107.00
2023-03-07T20:51:32.043Z,99121.00
2023-03-07T20:54:05.238Z,99106.00
2023-03-07T20:56:34.670Z,99115.00
2023-03-07T20:59:02.142Z,99124.00
2023-03-07T21:01:32.311Z,99124.00
2023-03-07T21:04:10.966Z,99128.00
2023-03-07T21:06:41.902Z,99129.00
2023-03-07T21:09:10.863Z,99136.00
2023-03-07T21:11:41.974Z,99143.00
2023-03-07T21:14:08.810Z,99141.00
2023-03-07T21:16:35.697Z,99142.00
2023-03-07T21:19:06.085Z,99134.00
2023-03-07T21:21:34.811Z,99147.00
2023-03-07T21:24:01.689Z,99153.00
2023-03-07T21:26:31.697Z,99155.00
2023-03-07T21:28:59.525Z,99157.00
2023-03-07T21:31:34.145Z,99159.00
2023-03-07T21:34:06.229Z,99158.00
2023-03-07T21:36:34.068Z,99164.00
2023-03-07T21:39:03.666Z,99161.00
2023-03-07T21:41:30.384Z,99180.00
2023-03-07T21:43:58.167Z,99183.00
2023-03-07T21:46:26.196Z,99181.00
2023-03-07T21:48:53.429Z,99178.00
2023-03-07T21:51:21.172Z,99189.00
2023-03-07T21:53:48.043Z,99186.00
2023-03-07T21:56:17.225Z,99190.00
2023-03-07T21:58:48.827Z,99187.00
2023-03-07T22:01:23.228Z,99191.00
2023-03-07T22:03:56.265Z,99197.00
2023-03-07T22:06:24.739Z,99195.00
2023-03-07T22:08:51.472Z,99194.00
2023-03-07T22:11:18.253Z,99200.00
2023-03-07T22:13:45.022Z,99207.00
2023-03-07T22:16:15.916Z,99209.00
2023-03-07T22:18:43.002Z,99214.00
2023-03-07T22:21:14.597Z,99220.00
2023-03-07T22:23:42.207Z,99220.00
2023-03-07T22:26:11.685Z,99218.00
2023-03-07T22:28:40.979Z,99222.00
2023-03-07T22:31:13.349Z,99214.00
2023-03-07T22:33:41.821Z,99216.00
2023-03-07T22:36:12.465Z,99221.00
2023-03-07T22:38:41.639Z,99222.00
2023-03-07T22:41:16.352Z,99220.00
2023-03-07T22:43:44.147Z,99233.00
2023-03-07T22:46:11.958Z,99223.00
2023-03-07T22:48:39.520Z,99230.00
2023-03-07T22:51:14.022Z,99232.00
2023-03-07T22:53:40.896Z,99238.00
2023-03-07T22:56:19.368Z,99239.00
2023-03-07T22:58:46.872Z,99242.00
2023-03-07T23:01:20.903Z,99245.00
2023-03-07T23:03:49.351Z,99241.00
2023-03-07T23:06:16.774Z,99241.00
2023-03-07T23:08:49.629Z,99244.00
2023-03-07T23:11:18.268Z,99248.00
2023-03-07T23:13:45.638Z,99245.00
2023-03-07T23:16:15.966Z,99243.00
2023-03-07T23:18:44.924Z,99250.00
2023-03-07T23:21:15.308Z,99248.00
2023-03-07T23:23:42.057Z,99246.00
2023-03-07T23:26:09.016Z,99250.00
2023-03-07T23:28:35.834Z,99257.00
2023-03-07T23:31:02.679Z,99245.00
2023-03-07T23:33:29.460Z,99260.00
2023-03-07T23:36:00.801Z,99256.00
2023-03-07T23:38:27.575Z,99245.00
2023-03-07T23:40:54.366Z,99252.00
2023-03-07T23:43:21.149Z,99250.00
2023-03-07T23:45:48.097Z,99253.00
2023-03-07T23:48:14.872Z,99261.00
2023-03-07T23:50:41.620Z,99267.00
2023-03-07T23:53:08.361Z,99268.00
2023-03-07T23:55:35.069Z,99281.00
2023-03-07T23:58:01.813Z,99278.00
